Time;durP1;ratioP1;P1;durP2;ratioP2;P2;SDS_P1;SDS_P2;PMS_P1;PMS_P2;Temp;Humidity;BMP_temperature;BMP_pressure;BME280_temperature;BME280_humidity;BME280_pressure;Samples;Min_cycle;Max_cycle;Signal;HPM_P1;HPM_P2
2023/11/19 00:02:11;;;;;;;0.55;0.40;;;10.10;99.90;;;;;;4902960;29;20039;-83
2023/11/19 00:04:39;;;;;;;0.43;0.30;;;10.10;99.90;;;;;;4902138;29;20036;-83
2023/11/19 00:07:06;;;;;;;0.68;0.40;;;10.10;99.90;;;;;;4902664;29;20060;-82
2023/11/19 00:09:32;;;;;;;1.10;0.50;;;10.10;99.90;;;;;;4901988;29;20034;-83
2023/11/19 00:12:00;;;;;;;0.82;0.47;;;10.10;99.90;;;;;;4902173;29;20032;-83
2023/11/19 00:14:25;;;;;;;0.70;0.50;;;10.20;99.90;;;;;;4902247;29;20032;-83
2023/11/19 00:16:51;;;;;;;1.88;0.73;;;10.20;99.90;;;;;;4919240;29;20363;-83
2023/11/19 00:19:17;;;;;;;1.02;0.50;;;10.20;99.90;;;;;;4902455;29;20032;-83
2023/11/19 00:21:43;;;;;;;1.00;0.47;;;10.20;99.90;;;;;;4901828;29;20068;-83
2023/11/19 00:24:09;;;;;;;2.17;0.38;;;10.20;99.90;;;;;;4902037;29;20028;-83
2023/11/19 00:26:35;;;;;;;0.47;0.30;;;10.20;99.90;;;;;;4918692;29;20131;-83
2023/11/19 00:29:00;;;;;;;0.90;0.20;;;10.30;99.90;;;;;;4918976;29;20115;-84
2023/11/19 00:31:27;;;;;;;0.80;0.30;;;10.30;99.90;;;;;;4901801;29;20469;-84
2023/11/19 00:33:53;;;;;;;1.27;0.32;;;10.30;99.90;;;;;;4901028;29;20091;-83
2023/11/19 00:36:19;;;;;;;1.40;0.30;;;10.30;99.90;;;;;;4902137;29;20032;-85
2023/11/19 00:38:44;;;;;;;0.80;0.30;;;10.30;99.90;;;;;;4901441;29;20060;-84
2023/11/19 00:41:10;;;;;;;2.13;0.40;;;10.30;99.90;;;;;;4901681;29;20028;-84
2023/11/19 00:43:36;;;;;;;1.23;0.35;;;10.40;99.90;;;;;;4918446;29;20035;-83
2023/11/19 00:46:04;;;;;;;1.65;0.30;;;10.40;99.90;;;;;;4901817;29;20059;-84
2023/11/19 00:48:29;;;;;;;0.90;0.28;;;10.40;99.90;;;;;;4902008;29;20039;-84
2023/11/19 00:50:55;;;;;;;0.50;0.35;;;10.40;99.90;;;;;;4901258;29;20028;-84
2023/11/19 00:53:20;;;;;;;0.70;0.20;;;10.40;99.90;;;;;;4901474;29;20086;-84
2023/11/19 00:55:46;;;;;;;1.42;0.30;;;10.50;99.90;;;;;;4917803;29;20052;-84
2023/11/19 00:58:12;;;;;;;0.25;0.20;;;10.50;99.90;;;;;;4901459;29;20496;-84
2023/11/19 01:00:37;;;;;;;1.80;0.45;;;10.50;99.90;;;;;;4901622;29;20047;-84
2023/11/19 01:03:03;;;;;;;1.95;0.28;;;10.50;99.90;;;;;;4901378;29;20039;-83
2023/11/19 01:05:28;;;;;;;0.70;0.50;;;10.50;99.90;;;;;;4903987;29;20024;-84
2023/11/19 01:07:54;;;;;;;0.55;0.28;;;10.50;99.90;;;;;;4925583;29;20024;-84
2023/11/19 01:10:20;;;;;;;0.30;0.20;;;10.60;99.90;;;;;;4915622;29;20032;-84
2023/11/19 01:12:46;;;;;;;1.35;0.30;;;10.60;99.90;;;;;;4903553;29;20032;-84
2023/11/19 01:15:13;;;;;;;0.50;0.20;;;10.60;99.90;;;;;;4901112;29;20030;-82
2023/11/19 01:17:38;;;;;;;1.52;0.40;;;10.60;99.90;;;;;;4917483;29;20024;-81
2023/11/19 01:20:06;;;;;;;0.90;0.52;;;10.60;99.90;;;;;;4901143;29;20024;-81
2023/11/19 01:22:32;;;;;;;0.40;0.22;;;10.70;99.90;;;;;;4901265;29;20033;-82
2023/11/19 01:24:58;;;;;;;0.43;0.20;;;10.70;99.90;;;;;;4900694;29;20105;-81
2023/11/19 01:27:24;;;;;;;2.10;0.28;;;10.70;99.90;;;;;;4901090;29;20070;-84
2023/11/19 01:29:50;;;;;;;0.20;0.20;;;10.70;99.90;;;;;;4900794;29;20063;-84
2023/11/19 01:32:15;;;;;;;1.52;0.30;;;10.70;99.90;;;;;;4901552;29;20064;-83
2023/11/19 01:34:41;;;;;;;0.35;0.30;;;10.70;99.90;;;;;;4917790;29;20060;-83
2023/11/19 01:37:09;;;;;;;0.63;0.30;;;10.80;99.90;;;;;;4904962;29;20115;-83
2023/11/19 01:39:35;;;;;;;1.10;0.20;;;10.70;99.90;;;;;;4904979;29;20036;-84
2023/11/19 01:42:01;;;;;;;0.50;0.30;;;10.80;99.90;;;;;;4905138;29;20032;-83
2023/11/19 01:44:26;;;;;;;0.73;0.20;;;10.80;99.90;;;;;;4905062;29;20028;-83
2023/11/19 01:46:52;;;;;;;1.27;0.38;;;10.80;99.90;;;;;;4904736;29;20035;-83
2023/11/19 01:49:19;;;;;;;0.30;0.20;;;10.80;99.90;;;;;;4921785;29;20035;-83
2023/11/19 01:51:47;;;;;;;0.70;0.20;;;10.80;99.90;;;;;;4904367;29;20040;-83
2023/11/19 01:54:13;;;;;;;4.00;0.32;;;10.80;99.90;;;;;;4905475;29;20091;-83
2023/11/19 01:56:40;;;;;;;1.35;0.30;;;10.80;99.90;;;;;;4904506;29;20418;-83
2023/11/19 01:59:07;;;;;;;0.75;0.25;;;10.90;99.90;;;;;;4922094;29;20090;-83
2023/11/19 02:01:37;;;;;;;0.95;0.30;;;10.90;99.90;;;;;;4921266;29;20039;-83
2023/11/19 02:04:04;;;;;;;0.38;0.22;;;10.90;99.90;;;;;;4904566;29;20036;-83
2023/11/19 02:06:31;;;;;;;0.82;0.20;;;10.90;99.90;;;;;;4904762;29;20091;-83
2023/11/19 02:08:57;;;;;;;0.65;0.20;;;10.90;99.90;;;;;;4904156;29;20279;-85
2023/11/19 02:11:23;;;;;;;0.43;0.25;;;10.90;99.90;;;;;;4904679;29;20130;-85
2023/11/19 02:13:49;;;;;;;0.90;0.30;;;10.90;99.90;;;;;;4904278;29;20039;-85
2023/11/19 02:16:15;;;;;;;1.23;0.28;;;10.90;99.90;;;;;;4904312;29;20032;-85
2023/11/19 02:18:40;;;;;;;0.82;0.30;;;10.90;99.90;;;;;;4921314;29;20419;-85
2023/11/19 02:21:06;;;;;;;0.43;0.32;;;10.90;99.90;;;;;;4904721;29;20032;-85
2023/11/19 02:23:32;;;;;;;0.63;0.25;;;10.90;99.90;;;;;;4904577;29;20079;-85
2023/11/19 02:26:14;;;;;;;1.38;0.43;;;11.00;99.90;;;;;;4920837;29;20028;-84
2023/11/19 02:28:41;;;;;;;0.35;0.28;;;11.00;99.90;;;;;;4903992;29;20036;-84
2023/11/19 02:31:09;;;;;;;0.98;0.47;;;11.00;99.90;;;;;;4904473;29;20032;-85
2023/11/19 02:33:36;;;;;;;0.68;0.40;;;11.00;99.90;;;;;;4904171;29;20032;-85
2023/11/19 02:36:03;;;;;;;1.02;0.30;;;11.00;99.90;;;;;;4918809;29;20111;-85
2023/11/19 02:38:30;;;;;;;1.20;0.35;;;11.00;99.90;;;;;;4919919;29;20107;-84
2023/11/19 02:40:56;;;;;;;1.52;0.40;;;11.00;99.90;;;;;;4951328;29;20459;-84
2023/11/19 02:43:22;;;;;;;1.88;0.40;;;11.00;99.90;;;;;;4919801;29;20040;-84
2023/11/19 02:45:48;;;;;;;1.55;0.47;;;11.00;99.90;;;;;;4919145;29;20032;-84
2023/11/19 02:48:15;;;;;;;0.60;0.60;;;11.00;99.90;;;;;;4919413;29;20478;-85
2023/11/19 02:50:44;;;;;;;6.45;0.68;;;11.10;99.90;;;;;;4919139;29;20394;-84
2023/11/19 02:53:10;;;;;;;1.95;0.50;;;11.10;99.90;;;;;;4920320;29;20044;-84
2023/11/19 02:55:38;;;;;;;1.60;0.52;;;11.10;99.90;;;;;;4920551;29;20355;-84
2023/11/19 02:58:19;;;;;;;1.50;0.40;;;11.10;99.90;;;;;;4919202;29;20028;-84
2023/11/19 03:00:56;;;;;;;2.85;0.50;;;11.10;99.90;;;;;;4919189;29;20036;-84
2023/11/19 03:03:26;;;;;;;1.63;0.40;;;11.10;99.90;;;;;;4919421;29;20091;-84
2023/11/19 03:05:51;;;;;;;1.20;0.55;;;11.10;99.90;;;;;;4919213;29;20029;-84
2023/11/19 03:08:17;;;;;;;1.90;1.30;;;11.10;99.90;;;;;;4919624;29;20056;-84
2023/11/19 03:10:43;;;;;;;0.57;0.40;;;11.10;99.90;;;;;;4918793;29;20036;-83
2023/11/19 03:13:17;;;;;;;0.55;0.45;;;11.10;99.90;;;;;;4919643;29;20134;-84
2023/11/19 03:15:43;;;;;;;0.93;0.47;;;11.10;99.90;;;;;;4918960;29;20024;-83
2023/11/19 03:18:08;;;;;;;1.15;0.77;;;11.10;99.90;;;;;;4919409;29;20028;-84
2023/11/19 03:20:34;;;;;;;2.33;0.90;;;11.10;99.90;;;;;;4919098;29;20031;-84
2023/11/19 03:23:01;;;;;;;0.55;0.40;;;11.10;99.90;;;;;;4918673;29;20111;-83
2023/11/19 03:25:33;;;;;;;0.73;0.45;;;11.10;99.90;;;;;;4919190;29;20074;-83
2023/11/19 03:28:02;;;;;;;0.60;0.50;;;11.10;99.90;;;;;;4918717;29;20024;-84
2023/11/19 03:30:28;;;;;;;1.23;0.70;;;11.10;99.90;;;;;;4919266;29;20028;-82
2023/11/19 03:32:57;;;;;;;2.85;0.82;;;11.20;99.90;;;;;;4919537;29;20047;-83
2023/11/19 03:35:23;;;;;;;0.52;0.50;;;11.20;99.90;;;;;;4918288;29;20052;-84
2023/11/19 03:37:52;;;;;;;1.33;0.50;;;11.20;99.90;;;;;;4918589;29;20079;-82
2023/11/19 03:40:22;;;;;;;0.70;0.50;;;11.20;99.90;;;;;;4919722;29;20032;-82
2023/11/19 03:42:48;;;;;;;1.13;0.50;;;11.20;99.90;;;;;;4919746;29;20031;-83
2023/11/19 03:45:15;;;;;;;1.40;0.60;;;11.20;99.90;;;;;;4918735;29;20397;-81
2023/11/19 03:47:41;;;;;;;1.10;0.57;;;11.20;99.90;;;;;;4918978;29;20056;-82
2023/11/19 03:50:08;;;;;;;0.80;0.47;;;11.20;99.90;;;;;;4919405;29;20028;-84
2023/11/19 03:52:34;;;;;;;2.00;0.43;;;11.20;99.90;;;;;;4918831;29;20059;-84
2023/11/19 03:55:00;;;;;;;3.13;0.60;;;11.20;99.90;;;;;;4918613;29;20036;-84
2023/11/19 03:57:27;;;;;;;0.50;0.38;;;11.20;99.90;;;;;;4918540;29;20028;-84
2023/11/19 03:59:52;;;;;;;2.08;0.60;;;11.30;99.90;;;;;;4917869;29;20032;-84
2023/11/19 04:02:18;;;;;;;1.85;0.50;;;11.30;99.90;;;;;;4918691;29;20036;-84
2023/11/19 04:04:43;;;;;;;0.70;0.40;;;11.30;99.90;;;;;;4919554;29;20055;-84
2023/11/19 04:07:09;;;;;;;0.47;0.30;;;11.30;99.90;;;;;;4918388;29;20426;-84
2023/11/19 04:09:37;;;;;;;0.55;0.38;;;11.30;99.90;;;;;;4918542;29;20032;-84
2023/11/19 04:12:03;;;;;;;2.05;0.50;;;11.30;99.90;;;;;;4918912;29;20036;-84
2023/11/19 04:14:29;;;;;;;1.38;0.50;;;11.30;99.90;;;;;;4918365;29;20035;-83
2023/11/19 04:16:55;;;;;;;2.67;0.52;;;11.30;99.90;;;;;;4917578;29;20024;-84
2023/11/19 04:19:20;;;;;;;1.67;0.60;;;11.30;99.90;;;;;;4918367;29;20035;-84
2023/11/19 04:21:46;;;;;;;1.23;0.50;;;11.30;99.90;;;;;;4917995;29;20379;-85
2023/11/19 04:24:12;;;;;;;0.40;0.35;;;11.30;99.90;;;;;;4955808;29;20028;-84
2023/11/19 04:26:42;;;;;;;3.38;1.17;;;11.30;99.90;;;;;;4938573;29;20016;-83
2023/11/19 04:29:11;;;;;;;1.67;0.80;;;11.40;99.90;;;;;;4923951;29;20083;-84
2023/11/19 04:31:36;;;;;;;0.90;0.52;;;11.40;99.90;;;;;;4918924;29;20153;-84
2023/11/19 04:34:02;;;;;;;1.27;0.40;;;11.40;99.90;;;;;;4917355;29;20133;-84
2023/11/19 04:36:29;;;;;;;1.40;0.50;;;11.40;99.90;;;;;;4902377;29;20383;-84
2023/11/19 04:38:55;;;;;;;0.90;0.35;;;11.40;99.90;;;;;;4918187;29;20032;-83
2023/11/19 04:41:21;;;;;;;0.80;0.30;;;11.40;99.90;;;;;;4918613;29;20286;-84
2023/11/19 04:43:47;;;;;;;1.67;0.40;;;11.40;99.90;;;;;;4901535;29;20069;-83
2023/11/19 04:46:12;;;;;;;0.35;0.20;;;11.40;99.90;;;;;;4901842;29;20123;-83
2023/11/19 04:48:38;;;;;;;0.80;0.30;;;11.40;99.90;;;;;;4902179;29;20028;-84
2023/11/19 04:51:07;;;;;;;0.70;0.40;;;11.40;99.90;;;;;;4917975;29;20119;-83
2023/11/19 04:53:32;;;;;;;0.80;0.32;;;11.40;99.90;;;;;;4918631;29;20024;-84
2023/11/19 04:55:59;;;;;;;1.50;0.50;;;11.40;99.90;;;;;;4901401;29;20051;-84
2023/11/19 04:58:24;;;;;;;1.90;0.30;;;11.40;99.90;;;;;;4901478;29;20032;-83
2023/11/19 05:00:50;;;;;;;0.68;0.38;;;11.50;99.90;;;;;;4901358;29;20039;-84
2023/11/19 05:03:16;;;;;;;1.40;0.40;;;11.50;99.90;;;;;;4918192;29;20600;-84
2023/11/19 05:05:41;;;;;;;3.15;0.47;;;11.50;99.90;;;;;;4901537;29;20028;-84
2023/11/19 05:08:07;;;;;;;0.47;0.30;;;11.50;99.90;;;;;;4917740;29;20024;-84
2023/11/19 05:10:32;;;;;;;1.17;0.35;;;11.60;99.90;;;;;;4901495;29;20431;-84
2023/11/19 05:12:58;;;;;;;0.60;0.28;;;11.60;99.90;;;;;;4917482;29;20036;-84
2023/11/19 05:15:24;;;;;;;0.50;0.30;;;11.60;99.90;;;;;;4901508;29;20036;-84
2023/11/19 05:17:49;;;;;;;1.48;0.52;;;11.60;99.90;;;;;;4901095;29;20031;-84
2023/11/19 05:20:15;;;;;;;0.68;0.20;;;11.70;99.90;;;;;;4901713;29;20122;-83
2023/11/19 05:22:41;;;;;;;0.73;0.20;;;11.70;99.90;;;;;;4901540;29;20059;-83
2023/11/19 05:25:08;;;;;;;1.48;0.47;;;11.70;99.90;;;;;;4900951;29;20032;-83
2023/11/19 05:27:35;;;;;;;0.63;0.20;;;11.80;99.90;;;;;;4901462;29;20366;-83
2023/11/19 05:30:01;;;;;;;0.70;0.25;;;11.80;99.90;;;;;;4900709;29;20036;-83
2023/11/19 05:32:27;;;;;;;0.40;0.20;;;11.80;99.90;;;;;;4901274;29;20040;-83
2023/11/19 05:34:52;;;;;;;0.65;0.30;;;11.90;99.90;;;;;;4906448;29;20090;-84
2023/11/19 05:37:18;;;;;;;0.65;0.30;;;11.90;99.90;;;;;;4917881;29;20064;-85
2023/11/19 05:39:45;;;;;;;0.30;0.20;;;11.90;99.90;;;;;;4917117;29;20031;-85
2023/11/19 05:42:10;;;;;;;1.30;0.28;;;11.90;99.90;;;;;;4916691;29;20032;-85
2023/11/19 05:44:37;;;;;;;0.32;0.20;;;11.90;99.90;;;;;;4917214;29;20119;-84
2023/11/19 05:47:03;;;;;;;1.95;0.13;;;11.90;99.90;;;;;;4916870;29;20410;-83
2023/11/19 05:49:29;;;;;;;1.65;0.30;;;11.90;99.90;;;;;;4916506;29;20039;-83
2023/11/19 05:51:55;;;;;;;0.32;0.17;;;12.00;99.90;;;;;;4916855;29;20036;-84
2023/11/19 05:54:21;;;;;;;1.17;0.10;;;12.00;99.90;;;;;;4917491;29;20067;-84
2023/11/19 05:56:53;;;;;;;0.22;0.10;;;12.00;99.90;;;;;;4917035;29;20024;-84
2023/11/19 05:59:19;;;;;;;1.90;0.22;;;12.00;99.90;;;;;;4917297;29;20122;-84
2023/11/19 06:01:45;;;;;;;0.52;0.20;;;12.00;99.90;;;;;;4917067;29;20067;-84
2023/11/19 06:04:11;;;;;;;0.30;0.20;;;12.00;99.90;;;;;;4916332;29;20044;-84
2023/11/19 06:06:37;;;;;;;1.27;0.20;;;12.10;99.90;;;;;;4917098;29;20035;-84
2023/11/19 06:09:03;;;;;;;0.55;0.10;;;12.10;99.90;;;;;;4916831;29;20029;-84
2023/11/19 06:11:29;;;;;;;0.98;0.20;;;12.10;99.90;;;;;;4916901;29;20040;-84
2023/11/19 06:13:54;;;;;;;1.10;0.10;;;12.10;99.90;;;;;;4916236;29;20114;-84
2023/11/19 06:16:20;;;;;;;1.30;0.10;;;12.10;99.90;;;;;;4917008;29;20529;-84
2023/11/19 06:18:46;;;;;;;0.35;0.10;;;12.20;99.90;;;;;;4916550;29;20028;-84
2023/11/19 06:21:12;;;;;;;1.88;0.20;;;12.20;99.90;;;;;;4916679;29;20094;-84
2023/11/19 06:23:38;;;;;;;0.15;0.10;;;12.20;99.90;;;;;;4920102;29;20061;-84
2023/11/19 06:26:05;;;;;;;0.70;0.20;;;12.20;99.90;;;;;;4920866;29;20051;-84
2023/11/19 06:28:31;;;;;;;0.20;0.10;;;12.20;99.90;;;;;;4920899;29;20028;-84
2023/11/19 06:30:57;;;;;;;0.20;0.17;;;12.30;99.90;;;;;;4920592;29;20115;-83
2023/11/19 06:33:24;;;;;;;0.50;0.10;;;12.30;99.90;;;;;;4920053;29;20084;-84
2023/11/19 06:35:50;;;;;;;0.20;0.10;;;12.30;99.90;;;;;;4920147;29;20128;-84
2023/11/19 06:38:15;;;;;;;1.05;0.20;;;12.30;99.90;;;;;;4919671;29;20055;-84
2023/11/19 06:40:41;;;;;;;0.35;0.10;;;12.30;99.90;;;;;;4920555;29;20028;-83
2023/11/19 06:43:08;;;;;;;0.38;0.10;;;12.30;99.90;;;;;;4919641;29;20033;-83
2023/11/19 06:45:34;;;;;;;1.38;0.10;;;12.30;99.90;;;;;;4921163;29;20024;-83
2023/11/19 06:48:04;;;;;;;0.38;0.10;;;12.30;99.90;;;;;;4919354;29;20028;-84
2023/11/19 06:50:30;;;;;;;1.20;0.20;;;12.30;99.90;;;;;;4919776;29;20490;-83
2023/11/19 06:52:56;;;;;;;0.38;0.13;;;12.30;99.90;;;;;;4920504;29;20043;-83
2023/11/19 06:55:21;;;;;;;0.47;0.25;;;12.30;99.90;;;;;;4919446;29;20032;-83
2023/11/19 06:57:47;;;;;;;0.15;0.10;;;12.30;99.90;;;;;;4919705;29;20024;-83
2023/11/19 07:00:12;;;;;;;0.20;0.20;;;12.40;99.90;;;;;;4919355;29;20036;-83
2023/11/19 07:02:39;;;;;;;0.20;0.10;;;12.40;99.90;;;;;;4919551;29;20036;-84
2023/11/19 07:05:05;;;;;;;0.98;0.10;;;12.40;99.90;;;;;;4919021;29;20036;-83
2023/11/19 07:07:32;;;;;;;1.95;0.10;;;12.40;99.90;;;;;;4919493;29;20032;-83
2023/11/19 07:09:58;;;;;;;0.68;0.47;;;12.40;99.90;;;;;;4920120;29;20115;-83
2023/11/19 07:12:26;;;;;;;1.05;0.40;;;12.40;99.90;;;;;;4919648;29;20493;-83
2023/11/19 07:14:52;;;;;;;0.35;0.15;;;12.40;99.90;;;;;;4919886;29;20028;-83
2023/11/19 07:17:18;;;;;;;0.30;0.10;;;12.40;99.90;;;;;;4918698;29;20121;-83
2023/11/19 07:19:44;;;;;;;0.63;0.10;;;12.40;99.90;;;;;;4919308;29;20032;-84
2023/11/19 07:22:11;;;;;;;1.58;0.20;;;12.40;99.90;;;;;;4919134;29;20028;-84
2023/11/19 07:24:39;;;;;;;0.52;0.28;;;12.50;99.90;;;;;;4920409;29;20028;-84
2023/11/19 07:27:04;;;;;;;0.00;0.00;;;12.40;99.90;;;;;;4918678;29;20035;-84
2023/11/19 07:29:31;;;;;;;0.85;0.30;;;12.50;99.90;;;;;;4920107;29;20036;-84
2023/11/19 07:31:57;;;;;;;0.17;0.10;;;12.50;99.90;;;;;;4918552;29;20104;-85
2023/11/19 07:34:23;;;;;;;0.45;0.10;;;12.50;99.90;;;;;;4918806;29;20496;-84
2023/11/19 07:36:49;;;;;;;1.38;0.10;;;12.50;99.90;;;;;;4920077;29;20082;-84
2023/11/19 07:39:14;;;;;;;0.00;0.00;;;12.50;99.90;;;;;;4935973;29;20024;-84
2023/11/19 07:41:40;;;;;;;0.17;0.10;;;12.60;99.90;;;;;;4936047;29;20028;-84
2023/11/19 07:44:06;;;;;;;0.43;0.15;;;12.60;99.90;;;;;;4918493;29;20028;-84
2023/11/19 07:46:32;;;;;;;1.20;0.10;;;12.60;99.90;;;;;;4918667;29;20039;-83
2023/11/19 07:48:57;;;;;;;0.05;0.05;;;12.70;99.90;;;;;;4918476;29;20032;-84
2023/11/19 07:51:23;;;;;;;0.22;0.20;;;12.60;99.90;;;;;;4918670;29;20040;-84
2023/11/19 07:53:49;;;;;;;0.88;0.20;;;12.70;99.90;;;;;;4918663;29;20032;-83
2023/11/19 07:56:15;;;;;;;0.55;0.10;;;12.80;99.90;;;;;;4917998;29;20028;-83
2023/11/19 07:58:40;;;;;;;0.95;0.13;;;12.80;99.90;;;;;;4918633;29;20454;-84
2023/11/19 08:01:06;;;;;;;0.73;0.20;;;12.80;99.90;;;;;;4918202;29;20032;-83
2023/11/19 08:03:36;;;;;;;0.98;0.10;;;12.80;99.90;;;;;;4918347;29;20079;-83
2023/11/19 08:06:03;;;;;;;1.02;0.10;;;12.80;99.90;;;;;;4917881;29;20032;-83
2023/11/19 08:08:29;;;;;;;0.20;0.10;;;12.90;99.90;;;;;;4919102;29;20028;-83
2023/11/19 08:10:56;;;;;;;0.30;0.15;;;12.90;99.90;;;;;;4918241;29;20039;-84
2023/11/19 08:13:23;;;;;;;0.45;0.10;;;12.80;99.90;;;;;;4917639;29;20131;-84
2023/11/19 08:15:49;;;;;;;0.13;0.10;;;12.90;99.90;;;;;;4917901;29;20453;-83
2023/11/19 08:18:14;;;;;;;0.82;0.10;;;12.90;99.90;;;;;;4917636;29;20028;-82
2023/11/19 08:20:41;;;;;;;1.13;0.20;;;12.90;99.90;;;;;;4918249;29;20458;-84
2023/11/19 08:23:07;;;;;;;0.45;0.20;;;12.90;99.90;;;;;;4917628;29;20043;-84
2023/11/19 08:25:35;;;;;;;0.15;0.10;;;12.90;99.90;;;;;;4918050;29;20035;-84
2023/11/19 08:28:03;;;;;;;0.57;0.10;;;12.90;99.90;;;;;;4917285;29;20031;-84
2023/11/19 08:30:29;;;;;;;0.55;0.20;;;13.00;99.90;;;;;;4917695;29;20455;-84
2023/11/19 08:32:55;;;;;;;0.47;0.20;;;13.00;99.90;;;;;;4917609;29;20466;-84
2023/11/19 08:35:20;;;;;;;0.93;0.20;;;13.00;99.90;;;;;;4917571;29;20080;-84
2023/11/19 08:37:46;;;;;;;0.30;0.20;;;13.00;99.90;;;;;;4918731;29;20035;-85
2023/11/19 08:40:14;;;;;;;0.50;0.20;;;13.00;99.90;;;;;;4917384;29;20032;-84
2023/11/19 08:42:40;;;;;;;0.57;0.10;;;13.10;99.90;;;;;;4917900;29;20626;-85
2023/11/19 08:45:07;;;;;;;0.43;0.20;;;13.10;99.90;;;;;;4916890;29;20057;-84
2023/11/19 08:47:32;;;;;;;0.20;0.10;;;13.10;99.90;;;;;;4917436;29;20064;-84
2023/11/19 08:49:58;;;;;;;0.40;0.20;;;13.10;99.90;;;;;;4917575;29;20079;-83
2023/11/19 08:52:24;;;;;;;0.30;0.20;;;13.10;99.90;;;;;;4917295;29;20052;-84
2023/11/19 08:54:49;;;;;;;0.75;0.20;;;13.10;99.90;;;;;;4917397;29;20055;-84
2023/11/19 08:57:15;;;;;;;0.52;0.15;;;13.10;99.90;;;;;;4916910;29;20039;-84
2023/11/19 08:59:40;;;;;;;1.10;0.22;;;13.10;99.90;;;;;;4917206;29;20050;-84
2023/11/19 09:02:06;;;;;;;0.17;0.10;;;13.10;99.90;;;;;;4917200;29;20032;-85
2023/11/19 09:04:33;;;;;;;1.08;0.38;;;13.10;99.90;;;;;;4917327;29;20044;-84
2023/11/19 09:06:59;;;;;;;0.60;0.40;;;13.20;99.90;;;;;;4917158;29;20024;-83
2023/11/19 09:09:25;;;;;;;0.13;0.10;;;13.20;99.90;;;;;;4916592;29;20035;-83
2023/11/19 09:11:50;;;;;;;0.40;0.20;;;13.20;99.90;;;;;;4916814;29;20036;-84
2023/11/19 09:14:18;;;;;;;0.38;0.20;;;13.20;99.90;;;;;;4916601;29;20051;-84
2023/11/19 09:16:43;;;;;;;1.17;0.38;;;13.20;99.90;;;;;;4917151;29;20106;-84
2023/11/19 09:19:09;;;;;;;1.17;0.20;;;13.20;99.90;;;;;;4916826;29;20183;-84
2023/11/19 09:21:38;;;;;;;0.82;0.20;;;13.30;99.90;;;;;;4917523;29;20059;-83
2023/11/19 09:24:04;;;;;;;1.95;0.20;;;13.30;99.90;;;;;;4917732;29;20024;-83
2023/11/19 09:26:30;;;;;;;1.55;0.40;;;13.30;99.90;;;;;;4917830;29;20039;-84
2023/11/19 09:28:56;;;;;;;0.40;0.22;;;13.30;99.90;;;;;;4917322;29;20028;-84
2023/11/19 09:31:21;;;;;;;0.68;0.17;;;13.40;99.90;;;;;;4916651;29;20449;-84
2023/11/19 09:33:47;;;;;;;1.35;0.20;;;13.40;99.90;;;;;;4916154;29;20080;-85
2023/11/19 09:36:16;;;;;;;0.20;0.10;;;13.40;99.90;;;;;;4900288;29;20040;-85
2023/11/19 09:38:45;;;;;;;0.47;0.30;;;13.50;99.90;;;;;;4901306;29;20036;-85
2023/11/19 09:41:14;;;;;;;0.32;0.20;;;13.50;99.90;;;;;;4900796;29;20043;-85
2023/11/19 09:43:41;;;;;;;0.20;0.10;;;13.60;99.90;;;;;;4900812;29;20032;-84
2023/11/19 09:46:10;;;;;;;0.85;0.10;;;13.60;99.90;;;;;;4917469;29;20033;-88
2023/11/19 09:48:42;;;;;;;1.25;0.28;;;13.60;99.90;;;;;;4901166;29;20039;-82
2023/11/19 09:51:11;;;;;;;;;;;13.60;99.90;;;;;;4917925;29;20096;-84
2023/11/19 09:53:37;;;;;;;2.40;0.28;;;13.70;99.90;;;;;;4908368;29;19907;-84
2023/11/19 09:56:05;;;;;;;0.43;0.30;;;13.70;99.90;;;;;;4910663;29;20031;-84
2023/11/19 09:58:32;;;;;;;1.55;0.20;;;13.70;99.90;;;;;;4911681;29;20084;-84
2023/11/19 10:01:12;;;;;;;0.20;0.20;;;13.70;99.90;;;;;;4911990;29;20039;-83
2023/11/19 10:03:39;;;;;;;0.30;0.17;;;13.80;99.90;;;;;;4920612;29;20024;-85
2023/11/19 10:06:09;;;;;;;0.77;0.20;;;13.70;99.90;;;;;;4912224;29;20032;-83
2023/11/19 10:08:39;;;;;;;0.77;0.52;;;13.70;99.90;;;;;;4911830;29;20036;-84
2023/11/19 10:11:08;;;;;;;1.20;0.50;;;13.70;99.90;;;;;;4911597;29;20473;-83
2023/11/19 10:13:38;;;;;;;0.77;0.10;;;13.80;99.90;;;;;;4909996;29;20032;-83
2023/11/19 10:16:11;;;;;;;1.83;0.20;;;13.80;99.90;;;;;;4921399;29;20027;-84
2023/11/19 10:18:38;;;;;;;1.10;0.20;;;13.80;99.90;;;;;;4903977;29;20028;-85
2023/11/19 10:21:07;;;;;;;0.77;0.32;;;13.80;99.90;;;;;;4920794;29;20024;-83
2023/11/19 10:23:52;;;;;;;1.15;0.30;;;13.80;99.90;;;;;;4902561;29;20060;-85
2023/11/19 10:26:19;;;;;;;0.73;0.20;;;13.80;99.90;;;;;;4919097;29;20027;-87
2023/11/19 10:28:46;;;;;;;0.13;0.10;;;13.90;99.90;;;;;;4903000;29;20055;-85
2023/11/19 10:31:16;;;;;;;0.68;0.20;;;13.90;99.90;;;;;;4919638;29;20040;-87
2023/11/19 10:33:44;;;;;;;0.40;0.30;;;13.90;99.90;;;;;;4902291;29;20040;-85
2023/11/19 10:36:12;;;;;;;0.25;0.20;;;14.00;99.90;;;;;;4901869;29;20141;-86
2023/11/19 10:38:38;;;;;;;0.52;0.22;;;14.10;99.90;;;;;;4901730;29;20035;-84
2023/11/19 10:41:05;;;;;;;0.82;0.30;;;14.10;99.90;;;;;;4902345;29;20389;-84
2023/11/19 10:43:31;;;;;;;0.50;0.20;;;14.10;99.90;;;;;;4918174;29;20060;-85
2023/11/19 10:46:13;;;;;;;0.95;0.30;;;14.00;99.90;;;;;;4902153;29;20067;-85
2023/11/19 10:48:39;;;;;;;0.40;0.20;;;14.10;99.90;;;;;;4902279;29;20107;-84
2023/11/19 10:51:10;;;;;;;1.30;0.32;;;14.10;99.90;;;;;;4902277;29;20028;-85
2023/11/19 10:53:40;;;;;;;0.43;0.30;;;14.10;99.90;;;;;;4919125;29;20036;-87
2023/11/19 10:56:16;;;;;;;1.10;0.20;;;14.30;99.90;;;;;;4921797;29;20032;-86
2023/11/19 10:58:47;;;;;;;1.35;0.30;;;14.30;99.90;;;;;;4910352;29;20060;-85
2023/11/19 11:01:26;;;;;;;0.70;0.13;;;14.40;99.90;;;;;;4901825;29;20024;-85
2023/11/19 11:03:54;;;;;;;2.35;0.70;;;14.50;99.90;;;;;;4901150;29;20065;-85
2023/11/19 11:06:22;;;;;;;1.73;0.45;;;14.50;99.90;;;;;;4901200;29;20478;-84
2023/11/19 11:08:48;;;;;;;1.02;0.30;;;14.50;99.90;;;;;;4917926;29;20020;-84
2023/11/19 11:11:21;;;;;;;0.63;0.30;;;14.50;99.90;;;;;;4901021;29;20028;-84
2023/11/19 11:13:49;;;;;;;1.35;0.30;;;14.50;99.90;;;;;;4900157;29;20039;-85
2023/11/19 11:16:18;;;;;;;1.58;0.30;;;14.60;99.90;;;;;;4901342;29;20036;-85
2023/11/19 11:18:45;;;;;;;0.90;0.32;;;14.60;99.90;;;;;;4901248;29;20043;-86
2023/11/19 11:21:17;;;;;;;3.38;0.20;;;14.60;99.90;;;;;;4917640;29;20087;-85
2023/11/19 11:24:26;;;;;;;4.00;0.30;;;14.60;99.90;;;;;;4901038;29;20020;-84
2023/11/19 11:27:12;;;;;;;2.78;0.40;;;14.50;99.90;;;;;;4900091;29;20032;-85
2023/11/19 11:30:10;;;;;;;2.03;0.40;;;14.50;99.90;;;;;;4900948;29;20028;-85
2023/11/19 11:33:04;;;;;;;1.58;0.30;;;14.40;99.90;;;;;;4899797;29;20044;-86
2023/11/19 11:35:47;;;;;;;1.73;0.40;;;14.30;99.90;;;;;;4911026;29;20059;-85
2023/11/19 11:38:14;;;;;;;2.22;0.73;;;14.40;99.90;;;;;;4916969;29;20039;-86
2023/11/19 11:40:40;;;;;;;0.88;0.55;;;14.40;99.90;;;;;;4917285;29;20122;-85
2023/11/19 11:43:45;;;;;;;1.60;0.50;;;14.40;99.90;;;;;;4916291;29;20504;-86
2023/11/19 11:46:33;;;;;;;0.80;0.30;;;14.50;99.90;;;;;;4915777;29;20116;-88
2023/11/19 11:49:10;;;;;;;2.05;0.52;;;14.70;99.90;;;;;;4916397;29;20024;-83
2023/11/19 11:51:44;;;;;;;1.38;0.73;;;14.80;99.90;;;;;;4917790;29;20067;-83
2023/11/19 11:54:11;;;;;;;1.50;0.50;;;15.10;99.90;;;;;;4917050;29;20052;-87
2023/11/19 11:56:39;;;;;;;0.47;0.40;;;15.20;99.90;;;;;;4917976;29;20142;-88
2023/11/19 11:59:18;;;;;;;3.35;0.50;;;15.30;99.90;;;;;;4918278;29;20028;-86
2023/11/19 12:02:00;;;;;;;1.08;0.32;;;15.40;99.90;;;;;;4918069;29;20047;-86
2023/11/19 12:04:29;;;;;;;1.48;0.50;;;15.40;99.90;;;;;;4917467;29;20040;-84
2023/11/19 12:07:12;;;;;;;2.08;0.60;;;15.20;99.90;;;;;;4918488;29;20036;-85
2023/11/19 12:10:02;;;;;;;0.60;0.30;;;15.20;99.90;;;;;;4914121;29;20474;-84
2023/11/19 12:12:29;;;;;;;0.68;0.40;;;15.30;99.90;;;;;;4904259;29;20044;-85
2023/11/19 12:14:58;;;;;;;0.77;0.20;;;15.20;99.90;;;;;;4917658;29;20025;-85
2023/11/19 12:17:33;;;;;;;2.05;0.38;;;15.20;99.90;;;;;;4917922;29;20070;-85
2023/11/19 12:20:05;;;;;;;1.77;0.30;;;15.20;99.90;;;;;;4916646;29;20122;-84
2023/11/19 12:22:31;;;;;;;1.60;0.55;;;15.20;99.90;;;;;;4920406;29;20036;-86
2023/11/19 12:24:57;;;;;;;1.33;0.40;;;15.40;99.90;;;;;;4919052;29;20099;-85
2023/11/19 12:27:22;;;;;;;2.03;0.30;;;15.50;99.90;;;;;;4916995;29;20050;-84
2023/11/19 12:29:51;;;;;;;2.95;0.60;;;15.60;99.90;;;;;;4916816;29;20028;-84
2023/11/19 12:32:18;;;;;;;1.75;0.47;;;15.50;99.90;;;;;;4916437;29;20512;-84
2023/11/19 12:34:45;;;;;;;2.53;0.50;;;15.50;99.90;;;;;;4916480;29;20052;-84
2023/11/19 12:37:10;;;;;;;8.30;2.88;;;15.50;99.90;;;;;;4918257;29;20024;-85
2023/11/19 12:39:36;;;;;;;8.18;2.20;;;15.50;99.90;;;;;;4917034;29;20031;-85
2023/11/19 12:42:02;;;;;;;8.18;2.65;;;15.50;99.90;;;;;;4918303;29;20533;-87
2023/11/19 12:44:28;;;;;;;3.75;0.93;;;15.50;99.90;;;;;;4916945;29;20044;-87
2023/11/19 12:47:06;;;;;;;8.98;1.83;;;15.50;99.90;;;;;;4916925;29;20343;-87
2023/11/19 12:49:34;;;;;;;3.17;0.95;;;15.60;99.90;;;;;;4916316;29;20102;-88
2023/11/19 12:52:00;;;;;;;1.70;0.30;;;15.90;99.90;;;;;;4916715;29;20111;-89